Time;durP1;ratioP1;P1;durP2;ratioP2;P2;SDS_P1;SDS_P2;PMS_P1;PMS_P2;Temp;Humidity;BMP_temperature;BMP_pressure;BME280_temperature;BME280_humidity;BME280_pressure;Samples;Min_cycle;Max_cycle;Signal;HPM_P1;HPM_P2
2021/11/08 00:00:07;;;;;;;;;;;;;;;15.00;58.73;100262.75;2119849;27;20000;-59
2021/11/08 00:01:10;;;;;;;;;;;;;;;15.01;58.68;100258.16;2116218;27;20400;-59
2021/11/08 00:02:10;;;;;;;;;;;;;;;15.00;58.65;100257.31;2116188;28;19926;-59
2021/11/08 00:03:12;;;;;;;;;;;;;;;14.99;58.71;100252.88;2121930;27;19930;-60
2021/11/08 00:04:12;;;;;;;;;;;;;;;15.00;58.75;100260.03;2122102;27;19915;-59
2021/11/08 00:05:19;;;;;;;;;;;;;;;15.00;58.70;100257.31;2116224;28;19912;-60
2021/11/08 00:06:19;;;;;;;;;;;;;;;15.00;58.75;100249.16;2111654;28;20337;-59
2021/11/08 00:07:20;;;;;;;;;;;;;;;15.01;58.67;100252.75;2115357;28;19934;-59
2021/11/08 00:08:21;;;;;;;;;;;;;;;15.00;58.69;100245.59;2116758;27;19911;-59
2021/11/08 00:09:21;;;;;;;;;;;;;;;15.00;58.84;100242.88;2116067;28;19942;-59
2021/11/08 00:10:29;;;;;;;;;;;;;;;14.99;58.70;100242.03;2116142;28;20451;-59
2021/11/08 00:11:29;;;;;;;;;;;;;;;14.99;58.72;100242.03;2123503;27;19964;-59
2021/11/08 00:12:30;;;;;;;;;;;;;;;15.00;58.72;100241.03;2124632;27;20011;-60
2021/11/08 00:13:31;;;;;;;;;;;;;;;14.99;58.78;100239.31;2124560;27;19907;-59
2021/11/08 00:14:31;;;;;;;;;;;;;;;14.99;58.71;100242.03;2124766;27;20346;-59
2021/11/08 00:20:40;;;;;;;;;;;;;;;14.99;58.85;100244.75;2099271;27;20283;-59
2021/11/08 00:21:46;;;;;;;;;;;;;;;15.00;58.80;100240.16;2116988;27;20373;-58
2021/11/08 00:22:47;;;;;;;;;;;;;;;14.99;58.73;100244.75;2119240;27;19919;-59
2021/11/08 00:23:47;;;;;;;;;;;;;;;14.99;58.75;100244.75;2124443;27;19912;-59
2021/11/08 00:24:55;;;;;;;;;;;;;;;14.99;58.73;100238.41;2124423;27;19912;-59
2021/11/08 00:25:57;;;;;;;;;;;;;;;15.00;58.78;100237.44;2115335;28;20394;-59
2021/11/08 00:26:58;;;;;;;;;;;;;;;14.99;58.71;100242.03;2115469;27;19912;-58
2021/11/08 00:27:58;;;;;;;;;;;;;;;14.99;58.72;100233.88;2124207;27;19912;-59
2021/11/08 00:28:59;;;;;;;;;;;;;;;15.00;58.79;100226.59;2109224;28;20382;-58
2021/11/08 00:29:59;;;;;;;;;;;;;;;15.00;58.82;100223.88;2106985;28;19995;-58
2021/11/08 00:31:05;;;;;;;;;;;;;;;15.01;58.78;100225.59;2116010;28;19915;-59
2021/11/08 00:32:06;;;;;;;;;;;;;;;15.00;58.76;100215.72;2115861;28;19915;-59
2021/11/08 00:33:15;;;;;;;;;;;;;;;14.99;58.70;100212.16;2122362;27;19915;-59
2021/11/08 00:34:15;;;;;;;;;;;;;;;14.99;58.72;100211.28;2109721;28;19975;-59
2021/11/08 00:35:16;;;;;;;;;;;;;;;14.98;58.81;100204.97;2114946;28;19915;-59
2021/11/08 00:36:16;;;;;;;;;;;;;;;14.98;58.81;100204.97;2124453;27;19915;-59
2021/11/08 00:37:16;;;;;;;;;;;;;;;15.00;58.80;100208.44;2124288;27;19947;-59
2021/11/08 00:38:17;;;;;;;;;;;;;;;14.99;58.74;100206.72;2122674;27;19919;-58
2021/11/08 00:39:23;;;;;;;;;;;;;;;15.01;58.73;100207.44;2115976;28;19919;-58
2021/11/08 00:40:23;;;;;;;;;;;;;;;15.00;58.70;100205.72;2113861;28;19959;-58
2021/11/08 00:41:23;;;;;;;;;;;;;;;15.00;58.74;100200.31;2115430;28;19919;-59
2021/11/08 00:42:28;;;;;;;;;;;;;;;15.00;58.75;100207.59;2124096;27;19950;-59
2021/11/08 00:43:29;;;;;;;;;;;;;;;14.99;58.64;100206.72;2121794;27;20003;-59
2021/11/08 00:44:29;;;;;;;;;;;;;;;15.00;58.78;100196.72;2121487;27;19911;-59
2021/11/08 00:45:35;;;;;;;;;;;;;;;14.99;58.87;100194.97;2115771;28;19979;-58
2021/11/08 00:46:35;;;;;;;;;;;;;;;14.99;58.73;100190.44;2106700;28;19920;-59
2021/11/08 00:47:36;;;;;;;;;;;;;;;14.99;58.79;100178.69;2107712;28;19916;-59
2021/11/08 00:48:37;;;;;;;;;;;;;;;14.98;58.88;100177.84;2113060;28;19916;-59
2021/11/08 00:49:38;;;;;;;;;;;;;;;15.00;58.75;100183.16;2114995;28;20386;-59
2021/11/08 00:50:39;;;;;;;;;;;;;;;15.00;58.82;100180.44;2124224;27;20334;-60
2021/11/08 00:51:43;;;;;;;;;;;;;;;14.99;58.90;100182.31;2108835;28;19935;-59
2021/11/08 00:52:43;;;;;;;;;;;;;;;14.98;58.81;100177.84;2111748;27;19978;-59
2021/11/08 00:53:45;;;;;;;;;;;;;;;14.99;58.93;100176.88;2115271;28;19922;-58
2021/11/08 00:54:45;;;;;;;;;;;;;;;14.99;58.70;100173.25;2109675;28;19935;-59
2021/11/08 00:55:48;;;;;;;;;;;;;;;14.99;58.76;100178.69;2116393;27;19919;-66
2021/11/08 00:56:51;;;;;;;;;;;;;;;14.98;58.77;100172.41;2119712;27;19915;-66
2021/11/08 00:57:55;;;;;;;;;;;;;;;14.99;58.82;100173.25;2121048;27;19918;-66
2021/11/08 00:58:56;;;;;;;;;;;;;;;14.99;58.79;100175.97;2119753;27;19956;-66
2021/11/08 00:59:57;;;;;;;;;;;;;;;14.99;58.76;100174.16;2120410;27;19945;-65
2021/11/08 01:01:02;;;;;;;;;;;;;;;14.99;58.85;100178.69;2114723;27;20270;-66
2021/11/08 01:02:03;;;;;;;;;;;;;;;14.98;58.83;100175.13;2104110;28;20226;-66
2021/11/08 01:03:05;;;;;;;;;;;;;;;14.98;58.83;100172.41;2108679;28;19915;-66
2021/11/08 01:04:07;;;;;;;;;;;;;;;14.98;58.88;100177.84;2121417;27;19984;-67
2021/11/08 01:05:08;;;;;;;;;;;;;;;14.98;58.79;100172.41;2107551;28;19992;-67
2021/11/08 01:06:10;;;;;;;;;;;;;;;15.00;58.78;100175.00;2110603;28;19995;-66
2021/11/08 01:07:10;;;;;;;;;;;;;;;14.99;58.85;100173.25;2121620;27;19911;-66
2021/11/08 01:08:10;;;;;;;;;;;;;;;14.97;58.90;100176.13;2120406;27;20377;-67
2021/11/08 01:09:11;;;;;;;;;;;;;;;14.98;58.79;100175.13;2120059;27;19959;-66
2021/11/08 01:10:12;;;;;;;;;;;;;;;14.97;58.85;100181.56;2113140;28;19919;-67
2021/11/08 01:11:13;;;;;;;;;;;;;;;14.98;58.87;100175.13;2117418;27;19915;-66
2021/11/08 01:12:14;;;;;;;;;;;;;;;14.98;58.82;100177.84;2121252;27;19939;-67
2021/11/08 01:13:16;;;;;;;;;;;;;;;14.98;58.98;100171.56;2112677;27;19964;-66
2021/11/08 01:14:17;;;;;;;;;;;;;;;14.98;58.91;100169.69;2119901;27;19950;-67
2021/11/08 01:15:17;;;;;;;;;;;;;;;14.98;58.87;100177.84;2120496;27;19930;-67
2021/11/08 01:16:21;;;;;;;;;;;;;;;14.98;58.90;100172.41;2119979;27;19940;-67
2021/11/08 01:17:21;;;;;;;;;;;;;;;14.98;58.89;100172.41;2111664;28;20264;-66
2021/11/08 01:18:22;;;;;;;;;;;;;;;14.98;58.93;100172.41;2105336;28;20221;-67
2021/11/08 01:19:24;;;;;;;;;;;;;;;14.97;58.78;100169.84;2120833;27;19915;-66
2021/11/08 01:20:31;;;;;;;;;;;;;;;14.98;58.93;100172.41;2120383;27;19941;-67
2021/11/08 01:21:32;;;;;;;;;;;;;;;14.97;58.89;100165.25;2106634;27;19920;-64
2021/11/08 01:22:34;;;;;;;;;;;;;;;14.99;58.96;100170.56;2098280;27;19912;-64
2021/11/08 01:23:35;;;;;;;;;;;;;;;14.98;58.99;100172.41;2104818;27;19919;-64
2021/11/08 01:24:36;;;;;;;;;;;;;;;14.98;58.84;100171.56;2114195;27;19907;-67
2021/11/08 01:25:37;;;;;;;;;;;;;;;14.98;58.85;100172.41;2121013;27;19919;-67
2021/11/08 01:26:37;;;;;;;;;;;;;;;14.98;58.94;100166.97;2120453;27;19923;-67
2021/11/08 01:27:41;;;;;;;;;;;;;;;14.98;58.88;100166.13;2120986;27;19923;-66
2021/11/08 01:28:46;;;;;;;;;;;;;;;14.99;58.96;100165.13;2120087;27;20341;-66
2021/11/08 01:29:47;;;;;;;;;;;;;;;14.98;58.85;100160.69;2118040;27;19924;-66
2021/11/08 01:30:59;;;;;;;;;;;;;;;14.98;58.81;100166.97;2115641;27;19960;-66
2021/11/08 01:32:04;;;;;;;;;;;;;;;14.98;58.94;100164.25;2117952;27;19923;-65
2021/11/08 01:33:10;;;;;;;;;;;;;;;14.98;58.91;100166.97;2118091;27;20031;-66
2021/11/08 01:34:10;;;;;;;;;;;;;;;14.97;58.94;100157.13;2117269;27;20093;-65
2021/11/08 01:35:12;;;;;;;;;;;;;;;14.97;58.96;100154.41;2117344;27;20007;-66
2021/11/08 01:36:14;;;;;;;;;;;;;;;14.97;58.91;100154.41;2118896;27;19923;-66
2021/11/08 01:37:18;;;;;;;;;;;;;;;14.98;58.94;100156.13;2119465;27;19998;-66
2021/11/08 01:39:21;;;;;;;;;;;;;;;14.98;58.93;100156.13;2120401;27;19915;-66
2021/11/08 01:40:22;;;;;;;;;;;;;;;14.99;58.88;100154.25;2113692;27;20309;-65
2021/11/08 01:41:24;;;;;;;;;;;;;;;14.98;58.84;100139.84;2120108;27;19915;-65
2021/11/08 01:42:25;;;;;;;;;;;;;;;14.99;58.83;100140.69;2119886;27;19915;-66
2021/11/08 01:43:25;;;;;;;;;;;;;;;14.98;58.96;100144.41;2121106;27;20393;-65
2021/11/08 01:44:28;;;;;;;;;;;;;;;14.97;58.91;100148.97;2116113;27;19916;-66
2021/11/08 01:45:28;;;;;;;;;;;;;;;14.98;59.14;100144.41;2117829;27;19915;-65
2021/11/08 01:46:29;;;;;;;;;;;;;;;14.99;58.98;100146.13;2116346;27;19954;-66
2021/11/08 01:47:29;;;;;;;;;;;;;;;14.98;58.96;100144.41;2110346;28;19939;-65
2021/11/08 01:48:30;;;;;;;;;;;;;;;14.99;58.82;100146.13;2111194;28;19912;-66
2021/11/08 01:49:30;;;;;;;;;;;;;;;14.98;58.82;100145.25;2114623;27;20412;-63
2021/11/08 01:50:31;;;;;;;;;;;;;;;14.98;58.84;100145.25;2095647;28;19931;-65
2021/11/08 01:51:33;;;;;;;;;;;;;;;14.99;58.80;100141.59;2097202;27;19915;-63
2021/11/08 01:52:33;;;;;;;;;;;;;;;14.98;59.01;100139.84;2105962;28;20452;-63
2021/11/08 01:53:34;;;;;;;;;;;;;;;14.98;58.85;100142.53;2102590;27;20813;-63
2021/11/08 01:54:34;;;;;;;;;;;;;;;14.98;58.87;100145.25;2105403;27;20478;-63
2021/11/08 01:55:35;;;;;;;;;;;;;;;14.98;58.94;100145.25;2097281;28;19923;-64
2021/11/08 01:56:35;;;;;;;;;;;;;;;14.98;58.97;100139.84;2095532;28;20219;-63
2021/11/08 01:57:36;;;;;;;;;;;;;;;14.98;58.95;100141.69;2103274;27;20574;-63
2021/11/08 01:58:37;;;;;;;;;;;;;;;14.98;58.96;100134.41;2099978;27;20185;-63
2021/11/08 01:59:40;;;;;;;;;;;;;;;14.97;58.95;100138.13;2106503;27;19915;-63
2021/11/08 02:00:41;;;;;;;;;;;;;;;14.98;58.93;100133.53;2094136;28;19963;-63
2021/11/08 02:01:41;;;;;;;;;;;;;;;14.98;58.91;100133.53;2090376;28;19916;-63
2021/11/08 02:02:42;;;;;;;;;;;;;;;14.98;58.87;100134.41;2100562;27;20204;-63
2021/11/08 02:03:43;;;;;;;;;;;;;;;14.97;59.00;100137.25;2106206;28;19915;-63
2021/11/08 02:04:43;;;;;;;;;;;;;;;14.96;59.04;100136.38;2090072;28;19909;-63
2021/11/08 02:05:45;;;;;;;;;;;;;;;14.96;58.99;100127.38;2099066;28;20391;-63
2021/11/08 02:06:48;;;;;;;;;;;;;;;14.95;58.96;100129.22;2098491;27;20413;-63
2021/11/08 02:07:49;;;;;;;;;;;;;;;14.96;59.06;100125.50;2102592;27;20413;-63
2021/11/08 02:08:49;;;;;;;;;;;;;;;14.97;58.93;100131.84;2100252;28;20274;-64
2021/11/08 02:09:50;;;;;;;;;;;;;;;14.96;58.94;100128.22;2100427;27;19964;-63
2021/11/08 02:10:51;;;;;;;;;;;;;;;14.96;59.02;100121.94;2103794;27;19923;-63
2021/11/08 02:11:51;;;;;;;;;;;;;;;14.96;59.03;100117.38;2097869;28;19916;-63
2021/11/08 02:12:51;;;;;;;;;;;;;;;14.97;59.08;100118.25;2103000;28;19923;-63
2021/11/08 02:13:53;;;;;;;;;;;;;;;14.95;58.93;100123.81;2105799;28;19959;-63
2021/11/08 02:14:53;;;;;;;;;;;;;;;14.97;59.09;100120.97;2105898;27;19911;-63
2021/11/08 02:15:54;;;;;;;;;;;;;;;14.97;59.02;100120.97;2105553;27;19964;-63
2021/11/08 02:16:54;;;;;;;;;;;;;;;14.96;58.96;100117.38;2102609;28;19943;-63
2021/11/08 02:17:55;;;;;;;;;;;;;;;14.96;59.01;100114.66;2106948;27;19938;-65
2021/11/08 02:18:56;;;;;;;;;;;;;;;14.96;58.93;100113.78;2088943;28;20137;-63
2021/11/08 02:19:58;;;;;;;;;;;;;;;14.96;58.96;100109.22;2098058;28;19977;-63
2021/11/08 02:21:02;;;;;;;;;;;;;;;14.97;58.92;100115.53;2104423;28;20335;-63
2021/11/08 02:22:04;;;;;;;;;;;;;;;14.97;59.05;100107.41;2105547;27;20150;-63
2021/11/08 02:23:06;;;;;;;;;;;;;;;14.97;58.97;100104.69;2100301;28;19924;-63
2021/11/08 02:24:11;;;;;;;;;;;;;;;14.96;58.94;100103.81;2103384;27;19922;-63
2021/11/08 02:25:12;;;;;;;;;;;;;;;14.96;59.06;100105.66;2106858;27;20334;-64
2021/11/08 02:26:16;;;;;;;;;;;;;;;14.96;58.99;100108.38;2106260;27;19911;-64
2021/11/08 02:27:20;;;;;;;;;;;;;;;14.96;58.94;100103.81;2107838;28;20598;-63
2021/11/08 02:28:21;;;;;;;;;;;;;;;14.96;59.02;100098.38;2101623;28;19920;-63
2021/11/08 02:29:21;;;;;;;;;;;;;;;14.95;59.09;100093.94;2106716;28;20104;-63
2021/11/08 02:30:23;;;;;;;;;;;;;;;14.96;58.95;100103.81;2105203;27;20491;-63
2021/11/08 02:31:23;;;;;;;;;;;;;;;14.96;58.91;100098.38;2105575;28;20285;-63
2021/11/08 02:32:24;;;;;;;;;;;;;;;14.97;58.92;100105.53;2105444;27;19907;-64
2021/11/08 02:33:27;;;;;;;;;;;;;;;14.97;58.91;100102.84;2104469;28;20377;-64
2021/11/08 02:34:28;;;;;;;;;;;;;;;14.97;59.05;100110.13;2107525;28;20302;-64
2021/11/08 02:35:29;;;;;;;;;;;;;;;14.97;59.02;100105.53;2103502;27;19974;-64
2021/11/08 02:36:30;;;;;;;;;;;;;;;14.97;58.93;100108.25;2094551;28;20337;-64
2021/11/08 02:37:31;;;;;;;;;;;;;;;14.96;58.94;100103.81;2096527;28;19938;-64
2021/11/08 02:38:35;;;;;;;;;;;;;;;14.97;59.01;100104.69;2106712;27;20109;-64
2021/11/08 02:39:39;;;;;;;;;;;;;;;14.96;59.03;100098.38;2102922;28;20381;-64
2021/11/08 02:40:40;;;;;;;;;;;;;;;14.97;59.05;100100.13;2102469;27;20010;-64
2021/11/08 02:41:41;;;;;;;;;;;;;;;14.96;58.99;100095.66;2107392;28;19943;-64
2021/11/08 02:42:41;;;;;;;;;;;;;;;14.97;58.98;100094.69;2105702;27;19919;-64
2021/11/08 02:43:42;;;;;;;;;;;;;;;14.95;59.00;100093.94;2103028;27;19918;-64
2021/11/08 02:44:43;;;;;;;;;;;;;;;14.96;58.99;100098.38;2104666;28;20365;-65
2021/11/08 02:45:43;;;;;;;;;;;;;;;14.95;58.99;100091.22;2102976;27;19961;-64
2021/11/08 02:46:44;;;;;;;;;;;;;;;14.96;59.04;100092.94;2103103;27;19964;-64
2021/11/08 02:47:45;;;;;;;;;;;;;;;14.96;59.09;100101.09;2105361;28;20245;-64
2021/11/08 02:48:46;;;;;;;;;;;;;;;14.97;59.05;100096.53;2104509;27;20332;-65
2021/11/08 02:49:49;;;;;;;;;;;;;;;14.96;58.97;100098.38;2104523;28;20314;-64
2021/11/08 02:50:56;;;;;;;;;;;;;;;14.97;59.03;100100.13;2106024;27;19923;-64
2021/11/08 02:52:05;;;;;;;;;;;;;;;14.97;59.02;100097.41;2090992;28;20389;-64
2021/11/08 02:53:10;;;;;;;;;;;;;;;14.97;58.79;100094.69;2095630;28;20328;-64
2021/11/08 02:54:21;;;;;;;;;;;;;;;14.97;58.95;100094.69;2105268;28;19912;-64
2021/11/08 02:55:24;;;;;;;;;;;;;;;14.97;59.02;100085.69;2106616;27;20345;-64
2021/11/08 02:56:25;;;;;;;;;;;;;;;14.96;59.05;100090.22;2094871;28;19923;-64
2021/11/08 02:57:27;;;;;;;;;;;;;;;14.96;59.01;100092.94;2092781;28;20014;-64
2021/11/08 02:58:29;;;;;;;;;;;;;;;14.96;59.00;100092.09;2102654;28;19963;-64
2021/11/08 02:59:31;;;;;;;;;;;;;;;14.96;59.03;100086.66;2106552;27;19947;-65
2021/11/08 03:00:31;;;;;;;;;;;;;;;14.96;59.06;100079.38;2106076;27;19915;-64
2021/11/08 03:01:33;;;;;;;;;;;;;;;14.96;58.97;100092.09;2106691;28;20442;-64
2021/11/08 03:02:36;;;;;;;;;;;;;;;14.96;59.04;100084.81;2103525;27;19973;-64
2021/11/08 03:03:45;;;;;;;;;;;;;;;14.96;59.04;100095.66;2107485;28;20621;-64
2021/11/08 03:04:49;;;;;;;;;;;;;;;14.96;59.00;100086.66;2106973;28;19915;-64
2021/11/08 03:05:50;;;;;;;;;;;;;;;14.96;59.00;100090.22;2101908;27;20022;-64
2021/11/08 03:06:50;;;;;;;;;;;;;;;14.95;58.96;100080.38;2108455;27;19915;-64
2021/11/08 03:07:50;;;;;;;;;;;;;;;14.95;59.00;100085.81;2103282;27;20604;-64
2021/11/08 03:08:52;;;;;;;;;;;;;;;14.95;58.94;100080.38;2106587;27;19930;-65
2021/11/08 03:09:56;;;;;;;;;;;;;;;14.95;58.93;100080.38;2106870;27;19916;-63
2021/11/08 03:10:57;;;;;;;;;;;;;;;14.95;59.06;100080.38;2102306;27;19920;-63
2021/11/08 03:11:59;;;;;;;;;;;;;;;14.96;59.09;100086.66;2109211;27;19943;-63
2021/11/08 03:13:07;;;;;;;;;;;;;;;14.95;59.02;100077.66;2106278;27;19915;-63
2021/11/08 03:14:11;;;;;;;;;;;;;;;14.96;59.10;100064.94;2105613;27;19996;-63
2021/11/08 03:15:15;;;;;;;;;;;;;;;14.96;59.02;100063.09;2109181;27;20047;-63
2021/11/08 03:16:23;;;;;;;;;;;;;;;14.96;59.13;100070.38;2100774;27;20370;-64
2021/11/08 03:17:28;;;;;;;;;;;;;;;14.95;59.13;100064.09;2099751;27;20380;-63
2021/11/08 03:18:32;;;;;;;;;;;;;;;14.95;59.04;100064.09;2101227;28;19908;-63
2021/11/08 03:19:35;;;;;;;;;;;;;;;14.95;59.09;100061.38;2098281;28;19980;-63
2021/11/08 03:20:37;;;;;;;;;;;;;;;14.96;59.05;100067.66;2087515;28;19912;-63
2021/11/08 03:21:37;;;;;;;;;;;;;;;14.95;59.06;100064.09;2091550;28;19916;-63
2021/11/08 03:22:39;;;;;;;;;;;;;;;14.96;59.01;100065.78;2104434;27;20447;-64
2021/11/08 03:23:40;;;;;;;;;;;;;;;14.95;59.01;100064.09;2107435;27;19915;-64
2021/11/08 03:26:11;;;;;;;;;;;;;;;14.94;58.98;100062.38;2100439;27;19942;-64
2021/11/08 03:28:25;;;;;;;;;;;;;;;14.96;59.04;100054.94;2106437;27;20014;-64
2021/11/08 03:29:25;;;;;;;;;;;;;;;14.95;59.04;100057.81;2097492;27;20168;-64
2021/11/08 03:30:34;;;;;;;;;;;;;;;14.96;59.06;100052.22;2103212;27;19916;-64
2021/11/08 03:31:35;;;;;;;;;;;;;;;14.97;59.05;100061.25;2103657;27;19959;-64
2021/11/08 03:32:37;;;;;;;;;;;;;;;14.95;59.12;100053.22;2106208;27;19916;-63
2021/11/08 03:33:39;;;;;;;;;;;;;;;14.96;59.08;100059.50;2108282;27;19915;-63
2021/11/08 03:34:46;;;;;;;;;;;;;;;14.95;59.11;100052.38;2104468;27;19965;-64
2021/11/08 03:35:46;;;;;;;;;;;;;;;14.95;59.08;100058.66;2107729;27;20006;-63
2021/11/08 03:36:49;;;;;;;;;;;;;;;14.94;58.98;100054.22;2100015;27;19916;-63
2021/11/08 03:37:51;;;;;;;;;;;;;;;14.95;59.17;100053.22;2108416;27;19950;-63
2021/11/08 03:38:51;;;;;;;;;;;;;;;14.96;59.10;100056.78;2098300;28;19961;-64
2021/11/08 03:39:51;;;;;;;;;;;;;;;14.95;59.11;100055.94;2091412;28;19966;-64
2021/11/08 03:40:52;;;;;;;;;;;;;;;14.95;59.08;100055.94;2095776;28;20234;-63
2021/11/08 03:41:52;;;;;;;;;;;;;;;14.95;59.11;100058.66;2093693;28;19923;-63
2021/11/08 03:42:54;;;;;;;;;;;;;;;14.95;59.14;100058.66;2096058;28;20051;-64
2021/11/08 03:43:54;;;;;;;;;;;;;;;14.94;59.11;100051.50;2094372;28;19915;-63
2021/11/08 03:44:55;;;;;;;;;;;;;;;14.95;59.09;100053.22;2098785;28;19923;-63
2021/11/08 03:45:56;;;;;;;;;;;;;;;14.95;59.11;100050.50;2097060;28;19908;-63
2021/11/08 03:46:56;;;;;;;;;;;;;;;14.94;59.00;100054.22;2108830;27;20452;-63
2021/11/08 03:47:58;;;;;;;;;;;;;;;14.96;59.09;100054.94;2102482;27;20240;-63
2021/11/08 03:48:58;;;;;;;;;;;;;;;14.96;59.17;100059.50;2096203;28;19915;-63
2021/11/08 03:49:58;;;;;;;;;;;;;;;14.95;59.20;100047.78;2097961;28;20226;-62
2021/11/08 03:50:59;;;;;;;;;;;;;;;14.96;59.15;100043.22;2104524;27;19968;-63
2021/11/08 03:52:00;;;;;;;;;;;;;;;14.95;59.13;100046.94;2108423;27;19915;-63
2021/11/08 03:53:01;;;;;;;;;;;;;;;14.95;59.11;100044.22;2106160;27;19915;-63
2021/11/08 03:54:03;;;;;;;;;;;;;;;14.94;59.05;100040.66;2104688;27;20460;-63
2021/11/08 03:55:04;;;;;;;;;;;;;;;14.95;59.12;100046.94;2109356;27;19907;-63
2021/11/08 03:56:06;;;;;;;;;;;;;;;14.94;59.11;100040.66;2106076;27;19946;-63
2021/11/08 03:57:06;;;;;;;;;;;;;;;14.95;59.06;100041.50;2105965;27;19915;-63
2021/11/08 03:58:07;;;;;;;;;;;;;;;14.94;59.09;100040.66;2110404;27;19916;-64
2021/11/08 03:59:07;;;;;;;;;;;;;;;14.95;59.06;100045.09;2104595;27;19916;-63
2021/11/08 04:00:10;;;;;;;;;;;;;;;14.96;59.22;100046.78;2094717;28;20393;-65
2021/11/08 04:01:11;;;;;;;;;;;;;;;14.95;59.10;100036.94;2091615;28;19959;-63
2021/11/08 04:02:11;;;;;;;;;;;;;;;14.95;59.15;100047.78;2095578;28;20002;-63
2021/11/08 04:03:11;;;;;;;;;;;;;;;14.95;59.15;100049.66;2098637;28;20518;-63
2021/11/08 04:04:12;;;;;;;;;;;;;;;14.95;59.08;100052.38;2107136;27;19937;-63
2021/11/08 04:05:13;;;;;;;;;;;;;;;14.95;59.11;100047.78;2105273;27;19915;-63
2021/11/08 04:06:14;;;;;;;;;;;;;;;14.95;59.15;100053.22;2106845;27;20038;-63
2021/11/08 04:07:14;;;;;;;;;;;;;;;14.96;59.11;100054.94;2105278;27;19915;-64
2021/11/08 04:08:17;;;;;;;;;;;;;;;14.95;59.13;100055.94;2106230;27;20293;-65
2021/11/08 04:09:18;;;;;;;;;;;;;;;14.97;59.08;100066.69;2099634;28;20401;-64
2021/11/08 04:10:20;;;;;;;;;;;;;;;14.96;59.00;100059.50;2102998;27;20330;-63
2021/11/08 04:11:20;;;;;;;;;;;;;;;14.95;59.06;100064.09;2104187;27;19920;-64
2021/11/08 04:12:22;;;;;;;;;;;;;;;14.95;59.18;100066.78;2106830;27;20024;-64
2021/11/08 04:13:28;;;;;;;;;;;;;;;14.95;59.14;100069.50;2094572;28;19922;-64
2021/11/08 04:14:28;;;;;;;;;;;;;;;14.96;59.06;100062.22;2098051;27;19943;-64
2021/11/08 04:15:33;;;;;;;;;;;;;;;14.95;59.19;100061.38;2108302;27;19998;-64
2021/11/08 04:16:34;;;;;;;;;;;;;;;14.96;59.31;100063.09;2105299;27;19916;-63
2021/11/08 04:17:35;;;;;;;;;;;;;;;14.96;59.01;100064.94;2106761;27;19914;-64
2021/11/08 04:18:35;;;;;;;;;;;;;;;14.96;59.19;100062.22;2107127;27;20324;-64
2021/11/08 04:19:36;;;;;;;;;;;;;;;14.96;59.06;100071.22;2096946;28;20427;-64
2021/11/08 04:20:38;;;;;;;;;;;;;;;14.95;59.11;100064.09;2098789;28;19920;-63
2021/11/08 04:21:38;;;;;;;;;;;;;;;14.96;59.19;100067.66;2104603;27;19926;-64
2021/11/08 04:22:39;;;;;;;;;;;;;;;14.96;59.09;100059.50;2107408;27;20461;-63
2021/11/08 04:23:39;;;;;;;;;;;;;;;14.95;59.08;100060.50;2107440;27;19959;-64
2021/11/08 04:24:42;;;;;;;;;;;;;;;14.94;59.11;100059.66;2105861;27;19976;-63
2021/11/08 04:25:42;;;;;;;;;;;;;;;14.95;59.20;100069.50;2106100;27;19941;-64
2021/11/08 04:26:43;;;;;;;;;;;;;;;14.95;59.11;100068.66;2107030;27;20378;-64
2021/11/08 04:27:43;;;;;;;;;;;;;;;14.94;59.17;100065.09;2105106;27;19959;-63
2021/11/08 04:28:51;;;;;;;;;;;;;;;14.95;59.17;100071.38;2107542;27;19972;-64
2021/11/08 04:29:52;;;;;;;;;;;;;;;14.94;59.03;100065.09;2103511;27;20404;-64
2021/11/08 04:30:52;;;;;;;;;;;;;;;14.94;59.15;100065.09;2105919;27;20423;-64
2021/11/08 04:31:53;;;;;;;;;;;;;;;14.95;59.22;100058.66;2100833;27;19918;-64
2021/11/08 04:34:01;;;;;;;;;;;;;;;14.94;59.22;100062.38;2105302;27;19911;-63
2021/11/08 04:35:10;;;;;;;;;;;;;;;14.94;59.26;100065.09;2100209;28;19966;-64
2021/11/08 04:36:37;;;;;;;;;;;;;;;14.95;59.11;100072.22;2100411;27;20273;-64
2021/11/08 04:42:06;;;;;;;;;;;;;;;14.95;59.17;100069.50;2101000;27;19915;-63
2021/11/08 04:47:30;;;;;;;;;;;;;;;14.94;59.22;100078.66;2104730;27;19930;-64
2021/11/08 04:51:03;;;;;;;;;;;;;;;14.94;59.12;100078.66;2104608;27;19998;-63
2021/11/08 05:30:16;;;;;;;;;;;;;;;14.93;59.11;100044.34;2101265;27;19922;-63
2021/11/08 05:31:16;;;;;;;;;;;;;;;14.92;59.24;100039.91;2105714;27;19920;-64
2021/11/08 05:32:17;;;;;;;;;;;;;;;14.93;59.24;100044.34;2104054;27;19916;-64
2021/11/08 05:33:17;;;;;;;;;;;;;;;14.93;59.24;100043.47;2100674;27;20010;-63
2021/11/08 05:34:18;;;;;;;;;;;;;;;14.93;59.23;100043.47;2102095;27;20672;-64
2021/11/08 05:35:19;;;;;;;;;;;;;;;14.93;59.23;100038.91;2100140;27;19965;-63
2021/11/08 05:36:19;;;;;;;;;;;;;;;14.93;59.26;100043.47;2104194;27;20029;-62
2021/11/08 05:37:21;;;;;;;;;;;;;;;14.92;59.17;100037.19;2098565;27;19915;-63
2021/11/08 05:38:21;;;;;;;;;;;;;;;14.94;59.18;100046.09;2104551;27;20022;-63
2021/11/08 05:39:22;;;;;;;;;;;;;;;14.93;59.22;100049.75;2103233;27;20330;-63
2021/11/08 05:40:35;;;;;;;;;;;;;;;14.92;59.21;100045.34;2103643;27;19915;-63
2021/11/08 05:41:36;;;;;;;;;;;;;;;14.93;59.22;100044.34;2101294;27;20462;-63
2021/11/08 05:42:37;;;;;;;;;;;;;;;14.92;59.25;100053.47;2103221;27;20317;-63
2021/11/08 05:43:37;;;;;;;;;;;;;;;14.92;59.23;100048.06;2098844;27;19915;-63
2021/11/08 05:44:40;;;;;;;;;;;;;;;14.93;59.21;100048.91;2106746;27;19904;-64
2021/11/08 05:45:41;;;;;;;;;;;;;;;14.93;59.26;100057.06;2094540;28;19916;-63
2021/11/08 05:46:41;;;;;;;;;;;;;;;14.91;59.18;100054.44;2091893;28;20248;-63
2021/11/08 05:47:42;;;;;;;;;;;;;;;14.92;59.18;100052.59;2107971;27;20484;-63
2021/11/08 05:48:42;;;;;;;;;;;;;;;14.92;59.21;100063.44;2101644;27;20478;-63
2021/11/08 05:49:44;;;;;;;;;;;;;;;14.91;59.23;100057.16;2102744;27;19914;-63
2021/11/08 05:50:45;;;;;;;;;;;;;;;14.92;59.17;100064.34;2103909;27;20448;-63
2021/11/08 05:51:45;;;;;;;;;;;;;;;14.92;59.15;100061.63;2100820;28;20804;-64
2021/11/08 05:52:47;;;;;;;;;;;;;;;14.92;59.25;100058.91;2098845;28;20419;-63
2021/11/08 05:53:48;;;;;;;;;;;;;;;14.93;59.13;100059.75;2095381;28;19912;-63
2021/11/08 05:54:49;;;;;;;;;;;;;;;14.93;59.16;100060.63;2096877;28;20353;-63
2021/11/08 05:56:43;;;;;;;;;;;;;;;14.94;59.12;100066.91;2105546;27;20480;-63
2021/11/08 06:49:25;;;;;;;;;;;;;;;14.91;59.26;100084.31;2124627;27;19911;-60
2021/11/08 06:50:25;;;;;;;;;;;;;;;14.91;59.29;100095.16;2121245;27;19931;-59
2021/11/08 06:51:25;;;;;;;;;;;;;;;14.92;59.16;100091.47;2116928;28;19912;-59
2021/11/08 06:52:27;;;;;;;;;;;;;;;14.92;59.17;100096.03;2117244;27;20357;-59
2021/11/08 06:53:30;;;;;;;;;;;;;;;14.92;59.32;100101.44;2118767;27;19958;-59
2021/11/08 06:54:31;;;;;;;;;;;;;;;14.91;59.17;100103.31;2125242;27;20005;-59
2021/11/08 06:55:32;;;;;;;;;;;;;;;14.91;59.21;100102.44;2115842;28;19912;-59
2021/11/08 06:56:38;;;;;;;;;;;;;;;14.91;59.21;100097.88;2115628;28;19919;-59
2021/11/08 06:57:57;;;;;;;;;;;;;;;14.91;59.18;100100.59;2116854;28;19911;-59
2021/11/08 06:58:58;;;;;;;;;;;;;;;14.91;59.28;100106.03;2117720;27;19988;-59
2021/11/08 06:59:58;;;;;;;;;;;;;;;14.92;59.19;100098.72;2108901;28;19912;-59
2021/11/08 07:00:58;;;;;;;;;;;;;;;14.91;59.36;100111.44;2116057;28;19911;-59
2021/11/08 07:01:59;;;;;;;;;;;;;;;14.91;59.32;100106.03;2125130;27;19915;-60
2021/11/08 07:02:59;;;;;;;;;;;;;;;14.90;59.17;100109.72;2125132;27;19916;-62
2021/11/08 07:03:59;;;;;;;;;;;;;;;14.91;59.23;100108.72;2125122;27;19916;-59
2021/11/08 07:05:00;;;;;;;;;;;;;;;14.91;59.30;100114.16;2115973;28;19948;-59
2021/11/08 07:06:00;;;;;;;;;;;;;;;14.91;59.35;100110.59;2116091;28;19945;-59
2021/11/08 07:07:01;;;;;;;;;;;;;;;14.91;59.19;100113.31;2121312;27;19912;-59
2021/11/08 07:08:02;;;;;;;;;;;;;;;14.90;59.28;100117.88;2116588;27;19962;-59
2021/11/08 07:09:04;;;;;;;;;;;;;;;14.90;59.33;100115.16;2125192;27;20375;-59